createdAt,value
2019-02-03T00:00:30.976Z,-0.80
2019-02-03T00:03:01.938Z,-0.90
2019-02-03T00:05:33.527Z,-1.00
2019-02-03T00:08:03.904Z,-1.00
2019-02-03T00:10:56.191Z,-1.20
2019-02-03T00:13:27.130Z,-1.20
2019-02-03T00:16:00.956Z,-1.10
2019-02-03T00:18:30.959Z,-1.10
2019-02-03T00:21:04.064Z,-1.10
2019-02-03T00:23:41.735Z,-1.20
2019-02-03T00:26:20.567Z,-1.20
2019-02-03T00:28:53.680Z,-1.20
2019-02-03T00:31:23.746Z,-1.20
2019-02-03T00:34:02.445Z,-1.20
2019-02-03T00:36:36.848Z,-1.20
2019-02-03T00:39:17.519Z,-1.20
2019-02-03T00:41:49.504Z,-1.30
2019-02-03T00:44:20.206Z,-1.40
2019-02-03T00:46:50.367Z,-1.40
2019-02-03T00:49:25.506Z,-1.60
2019-02-03T00:51:55.935Z,-1.70
2019-02-03T00:54:31.492Z,-1.70
2019-02-03T00:57:01.506Z,-1.90
2019-02-03T00:59:33.144Z,-1.90
2019-02-03T01:02:04.339Z,-2.10
2019-02-03T01:04:37.118Z,-2.10
2019-02-03T01:07:09.697Z,-2.20
2019-02-03T01:09:42.193Z,-2.20
2019-02-03T01:12:14.969Z,-2.10
2019-02-03T01:14:47.136Z,-2.10
2019-02-03T01:17:19.636Z,-2.10
2019-02-03T01:19:57.184Z,-2.10
2019-02-03T01:22:27.148Z,-2.20
2019-02-03T01:24:58.855Z,-2.20
2019-02-03T01:27:30.745Z,-2.20
2019-02-03T01:30:02.806Z,-2.20
2019-02-03T01:32:35.199Z,-2.20
2019-02-03T01:35:05.756Z,-2.40
2019-02-03T01:37:40.006Z,-2.40
2019-02-03T01:40:12.684Z,-2.50
2019-02-03T01:42:46.698Z,-2.40
2019-02-03T01:45:20.748Z,-2.50
2019-02-03T01:47:51.154Z,-2.60
2019-02-03T01:50:28.670Z,-2.60
2019-02-03T01:52:58.875Z,-2.70
2019-02-03T01:55:30.752Z,-2.70
2019-02-03T01:58:29.067Z,-2.60
2019-02-03T02:01:15.901Z,-2.70
2019-02-03T02:03:48.731Z,-2.50
2019-02-03T02:06:27.441Z,-2.50
2019-02-03T02:09:00.375Z,-2.60
2019-02-03T02:11:34.355Z,-2.60
2019-02-03T02:14:08.368Z,-2.60
2019-02-03T02:16:53.465Z,-2.60
2019-02-03T02:19:22.935Z,-2.60
2019-02-03T02:21:56.909Z,-2.40
2019-02-03T02:24:29.633Z,-2.50
2019-02-03T02:27:25.250Z,-2.60
2019-02-03T02:30:21.005Z,-2.60
2019-02-03T02:32:31.148Z,-2.70
2019-02-03T02:35:01.318Z,-2.80
2019-02-03T02:37:31.500Z,-2.70
2019-02-03T02:40:12.796Z,-2.50
2019-02-03T02:42:41.965Z,-2.50
2019-02-03T02:45:25.650Z,-2.70
2019-02-03T02:47:54.701Z,-2.80
2019-02-03T02:50:37.384Z,-2.90
2019-02-03T02:53:11.194Z,-2.90
2019-02-03T02:55:41.056Z,-2.90
2019-02-03T02:58:13.671Z,-3.00
2019-02-03T03:00:54.107Z,-2.90
2019-02-03T03:03:28.500Z,-3.20
2019-02-03T03:08:59.463Z,-2.80
2019-02-03T03:11:40.413Z,-2.90
2019-02-03T03:14:18.289Z,-3.00
2019-02-03T03:16:48.386Z,-3.10
2019-02-03T03:19:47.654Z,-3.10
2019-02-03T03:22:08.866Z,-3.10
2019-02-03T03:24:38.817Z,-2.90
2019-02-03T03:27:08.951Z,-3.00
2019-02-03T03:30:00.926Z,-2.90
2019-02-03T03:32:33.935Z,-3.00
2019-02-03T03:35:13.140Z,-3.20
2019-02-03T03:37:46.368Z,-3.10
2019-02-03T03:40:34.574Z,-3.10
2019-02-03T03:43:05.021Z,-3.20
2019-02-03T03:45:37.093Z,-3.30
2019-02-03T03:48:09.010Z,-3.10
2019-02-03T03:50:42.036Z,-3.10
2019-02-03T03:53:21.207Z,-3.20
2019-02-03T03:55:56.276Z,-3.30
2019-02-03T03:58:46.666Z,-3.20
2019-02-03T04:01:17.042Z,-3.20
2019-02-03T04:18:28.986Z,-3.20
2019-02-03T04:20:54.427Z,-3.10
2019-02-03T04:23:45.476Z,-3.30
2019-02-03T04:29:12.166Z,-3.00
2019-02-03T04:31:49.978Z,-2.90
2019-02-03T04:34:20.803Z,-2.80
2019-02-03T04:36:50.932Z,-2.90
2019-02-03T04:39:42.219Z,-2.90
2019-02-03T04:42:15.211Z,-3.00
2019-02-03T04:44:58.489Z,-3.10
2019-02-03T04:47:32.770Z,-3.00
2019-02-03T04:50:25.528Z,-3.20
2019-02-03T04:53:10.466Z,-3.20
2019-02-03T04:56:08.159Z,-3.20
2019-02-03T04:58:41.077Z,-3.30
2019-02-03T05:01:26.014Z,-3.40
2019-02-03T05:04:00.277Z,-3.60
2019-02-03T05:06:40.635Z,-3.60
2019-02-03T05:09:18.066Z,-3.80
2019-02-03T05:12:03.764Z,-3.70
2019-02-03T05:14:38.309Z,-3.80
2019-02-03T05:17:09.654Z,-3.90
2019-02-03T05:19:50.039Z,-3.70
2019-02-03T05:22:21.441Z,-3.70
2019-02-03T05:25:00.457Z,-3.70
2019-02-03T05:27:32.243Z,-3.70
2019-02-03T05:30:12.089Z,-3.50
2019-02-03T05:32:43.538Z,-3.60
2019-02-03T05:35:44.303Z,-3.70
2019-02-03T05:38:03.258Z,-3.80
2019-02-03T05:40:32.783Z,-3.90
2019-02-03T05:43:15.714Z,-4.00
2019-02-03T05:45:54.796Z,-4.10
2019-02-03T05:48:38.638Z,-4.20
2019-02-03T05:51:14.838Z,-4.20
2019-02-03T05:53:46.602Z,-4.30
2019-02-03T05:57:36.444Z,-4.30
2019-02-03T05:59:16.489Z,-4.50
2019-02-03T06:04:53.599Z,-4.50
2019-02-03T06:07:24.138Z,-4.50
2019-02-03T06:10:13.091Z,-4.40
2019-02-03T06:12:46.253Z,-4.50
2019-02-03T06:15:42.508Z,-4.50
2019-02-03T06:18:11.921Z,-4.60
2019-02-03T06:20:59.226Z,-4.60
2019-02-03T06:23:29.949Z,-4.60
2019-02-03T06:26:01.217Z,-4.80
2019-02-03T06:28:32.653Z,-4.90
2019-02-03T06:31:14.321Z,-4.90
2019-02-03T06:33:56.689Z,-4.90
2019-02-03T06:36:30.406Z,-4.90
2019-02-03T06:39:16.465Z,-4.80
2019-02-03T06:41:53.073Z,-4.90
2019-02-03T06:44:25.317Z,-5.00
2019-02-03T06:47:23.212Z,-5.10
2019-02-03T06:49:39.472Z,-5.00
2019-02-03T06:52:11.481Z,-5.00
2019-02-03T06:54:50.359Z,-5.00
2019-02-03T06:57:22.995Z,-5.10
2019-02-03T06:59:58.372Z,-5.20
2019-02-03T07:02:35.661Z,-5.20
2019-02-03T07:05:12.856Z,-5.20
2019-02-03T07:07:46.365Z,-5.20
2019-02-03T07:10:18.029Z,-5.20
2019-02-03T07:13:05.651Z,-5.20
2019-02-03T07:15:36.672Z,-5.30
2019-02-03T07:18:07.305Z,-5.40
2019-02-03T07:20:40.186Z,-5.40
2019-02-03T07:23:15.328Z,-5.30
2019-02-03T07:25:50.574Z,-5.30
2019-02-03T07:28:22.774Z,-5.40
2019-02-03T07:31:03.249Z,-5.40
2019-02-03T07:33:39.779Z,-5.30
2019-02-03T07:36:30.090Z,-5.40
2019-02-03T07:39:09.850Z,-5.30
2019-02-03T07:41:44.250Z,-5.40
2019-02-03T07:45:34.962Z,-5.40
2019-02-03T07:47:45.393Z,-5.50
2019-02-03T07:50:57.778Z,-5.50
2019-02-03T07:53:38.562Z,-5.60
2019-02-03T07:56:14.413Z,-5.50
2019-02-03T07:59:03.671Z,-5.40
2019-02-03T08:01:34.671Z,-5.40
2019-02-03T08:04:14.508Z,-5.40
2019-02-03T08:06:45.961Z,-5.30
2019-02-03T08:09:41.631Z,-5.40
2019-02-03T08:12:23.418Z,-5.40
2019-02-03T08:15:03.333Z,-5.40
2019-02-03T08:17:33.425Z,-5.40
2019-02-03T08:20:14.923Z,-5.30
2019-02-03T08:22:52.988Z,-5.10
2019-02-03T08:25:23.600Z,-5.20
2019-02-03T08:27:59.393Z,-5.10
2019-02-03T08:30:40.734Z,-5.00
2019-02-03T08:33:25.784Z,-4.90
2019-02-03T08:36:14.783Z,-4.70
2019-02-03T08:38:46.697Z,-4.30
2019-02-03T08:44:00.240Z,-3.90
2019-02-03T08:48:11.159Z,-3.90
2019-02-03T08:49:38.598Z,-3.90
2019-02-03T08:52:23.381Z,-3.80
2019-02-03T08:57:46.953Z,-3.60
2019-02-03T09:00:41.109Z,-3.60
2019-02-03T09:05:53.933Z,-3.30
2019-02-03T09:08:27.536Z,-3.30
2019-02-03T09:11:06.552Z,-3.20
2019-02-03T09:13:49.830Z,-3.00
2019-02-03T09:16:27.208Z,-2.70
2019-02-03T09:19:07.616Z,-2.30
2019-02-03T09:21:38.300Z,-2.10
2019-02-03T09:24:20.064Z,-2.00
2019-02-03T09:26:57.713Z,-1.70
2019-02-03T09:30:01.877Z,-1.30
2019-02-03T09:32:32.317Z,-1.70
2019-02-03T09:35:20.290Z,-1.80
2019-02-03T09:37:51.412Z,-1.80
2019-02-03T09:40:33.236Z,-1.20
2019-02-03T09:43:08.354Z,-1.30
2019-02-03T09:45:44.117Z,-1.40
2019-02-03T09:48:22.621Z,-1.40
2019-02-03T09:50:52.736Z,-0.80
2019-02-03T09:53:31.896Z,0.50
2019-02-03T09:56:08.032Z,0.90
2019-02-03T10:01:38.309Z,0.80
2019-02-03T10:04:20.964Z,0.60
2019-02-03T10:07:00.104Z,1.10
2019-02-03T10:11:27.024Z,1.00
2019-02-03T10:12:08.138Z,0.50
2019-02-03T10:14:56.005Z,0.20
2019-02-03T10:17:25.204Z,-0.10
2019-02-03T10:19:58.854Z,-0.20
2019-02-03T10:22:48.403Z,-0.40
2019-02-03T10:25:32.090Z,-0.20
2019-02-03T10:28:05.997Z,0.40
2019-02-03T10:30:41.749Z,2.60
2019-02-03T10:33:29.444Z,5.70
2019-02-03T10:36:02.303Z,6.70
2019-02-03T10:38:53.273Z,4.90
2019-02-03T10:41:24.549Z,2.80
2019-02-03T10:44:07.691Z,1.50
2019-02-03T10:46:46.716Z,0.90
2019-02-03T10:52:22.392Z,0.50
2019-02-03T10:55:04.272Z,0.50
2019-02-03T10:57:44.748Z,0.50
2019-02-03T11:01:37.408Z,0.70
2019-02-03T11:03:26.951Z,0.80
2019-02-03T11:06:06.167Z,0.80
2019-02-03T11:08:45.190Z,0.90
